createdAt,value
2023-02-16T00:02:01.527Z,67.47
2023-02-16T00:05:32.724Z,67.42
2023-02-16T00:08:34.574Z,67.42
2023-02-16T00:11:55.411Z,67.45
2023-02-16T00:14:57.789Z,67.43
2023-02-16T00:18:02.172Z,67.48
2023-02-16T00:21:04.223Z,67.50
2023-02-16T00:24:06.138Z,67.52
2023-02-16T00:27:13.378Z,67.45
2023-02-16T00:30:18.148Z,67.48
2023-02-16T00:33:21.168Z,67.51
2023-02-16T00:36:23.331Z,67.52
2023-02-16T00:39:25.568Z,67.55
2023-02-16T00:42:30.783Z,67.52
2023-02-16T00:45:37.597Z,67.49
2023-02-16T00:48:39.419Z,67.59
2023-02-16T00:51:42.549Z,67.64
2023-02-16T00:54:44.384Z,67.66
2023-02-16T00:57:56.739Z,67.70
2023-02-16T01:01:05.842Z,67.71
2023-02-16T01:04:11.934Z,67.82
2023-02-16T01:07:36.564Z,67.83
2023-02-16T01:10:58.005Z,67.81
2023-02-16T01:13:59.952Z,67.86
2023-02-16T01:17:01.830Z,67.90
2023-02-16T01:20:13.347Z,67.94
2023-02-16T01:23:15.291Z,67.96
2023-02-16T01:26:19.396Z,68.00
2023-02-16T01:29:21.615Z,68.03
2023-02-16T01:32:24.832Z,68.07
2023-02-16T01:35:32.592Z,68.09
2023-02-16T01:38:34.531Z,68.14
2023-02-16T01:41:48.634Z,68.20
2023-02-16T01:45:01.228Z,68.20
2023-02-16T01:48:06.386Z,68.25
2023-02-16T01:51:18.265Z,68.26
2023-02-16T01:54:30.585Z,68.31
2023-02-16T01:57:48.817Z,68.25
2023-02-16T02:00:51.640Z,68.30
2023-02-16T02:04:12.245Z,68.34
2023-02-16T02:07:23.267Z,68.38
2023-02-16T02:10:40.946Z,68.39
2023-02-16T02:13:51.930Z,68.40
2023-02-16T02:17:04.584Z,68.43
2023-02-16T02:20:48.988Z,68.48
2023-02-16T02:23:57.064Z,68.48
2023-02-16T02:27:24.316Z,68.48
2023-02-16T02:30:32.370Z,68.47
2023-02-16T02:33:59.367Z,68.45
2023-02-16T02:37:15.606Z,68.43
2023-02-16T02:40:36.158Z,68.43
2023-02-16T02:43:45.390Z,68.42
2023-02-16T02:46:48.035Z,68.40
2023-02-16T02:49:52.764Z,68.38
2023-02-16T02:52:57.304Z,68.37
2023-02-16T02:56:20.676Z,68.39
2023-02-16T02:59:46.292Z,68.45
2023-02-16T03:02:52.889Z,68.48
2023-02-16T03:05:56.694Z,68.50
2023-02-16T03:09:08.068Z,68.54
2023-02-16T03:12:30.781Z,68.59
2023-02-16T03:15:34.197Z,68.64
2023-02-16T03:18:56.944Z,68.68
2023-02-16T03:22:18.244Z,68.68
2023-02-16T03:25:42.006Z,68.76
2023-02-16T03:29:03.741Z,68.77
2023-02-16T03:32:06.139Z,68.76
2023-02-16T03:35:08.742Z,68.79
2023-02-16T03:38:10.664Z,68.86
2023-02-16T03:41:12.569Z,68.91
2023-02-16T03:44:15.117Z,68.96
2023-02-16T03:47:17.221Z,69.00
2023-02-16T03:50:19.273Z,69.04
2023-02-16T03:53:21.264Z,69.07
2023-02-16T03:56:23.204Z,69.08
2023-02-16T03:59:25.122Z,69.10
2023-02-16T04:02:28.096Z,69.11
2023-02-16T04:05:30.092Z,69.17
2023-02-16T04:08:32.006Z,69.19
2023-02-16T04:11:52.365Z,69.23
2023-02-16T04:14:54.176Z,69.21
2023-02-16T04:17:56.494Z,69.22
2023-02-16T04:20:58.340Z,69.27
2023-02-16T04:24:00.204Z,69.35
2023-02-16T04:27:01.991Z,69.37
2023-02-16T04:30:06.276Z,69.42
2023-02-16T04:33:08.119Z,69.44
2023-02-16T04:36:10.071Z,69.42
2023-02-16T04:39:11.992Z,69.43
2023-02-16T04:42:13.784Z,69.47
2023-02-16T04:45:15.754Z,69.51
2023-02-16T04:48:17.590Z,69.56
2023-02-16T04:51:19.467Z,69.55
2023-02-16T04:54:21.303Z,69.57
2023-02-16T04:57:24.376Z,69.59
2023-02-16T05:00:26.486Z,69.58
2023-02-16T05:03:28.371Z,69.59
2023-02-16T05:06:30.189Z,69.62
2023-02-16T05:09:31.971Z,69.69
2023-02-16T05:12:52.407Z,69.70
2023-02-16T05:15:54.475Z,69.65
2023-02-16T05:18:58.628Z,69.68
2023-02-16T05:22:00.719Z,69.72
2023-02-16T05:25:02.679Z,69.75
2023-02-16T05:28:05.127Z,69.75
2023-02-16T05:31:07.411Z,69.77
2023-02-16T05:34:09.677Z,69.78
2023-02-16T05:37:13.109Z,69.78
2023-02-16T05:40:14.949Z,69.82
2023-02-16T05:43:16.879Z,69.80
2023-02-16T05:46:19.790Z,69.86
2023-02-16T05:49:21.771Z,69.85
2023-02-16T05:52:23.683Z,69.89
2023-02-16T05:55:25.895Z,69.92
2023-02-16T05:58:27.697Z,69.96
2023-02-16T06:01:29.521Z,70.01
2023-02-16T06:04:31.974Z,70.10
2023-02-16T06:07:33.796Z,70.21
2023-02-16T06:10:35.752Z,70.25
2023-02-16T06:13:37.590Z,70.28
2023-02-16T06:16:42.044Z,70.30
2023-02-16T06:19:43.874Z,70.31
2023-02-16T06:22:45.763Z,70.37
2023-02-16T06:25:50.748Z,70.38
2023-02-16T06:28:53.266Z,70.42
2023-02-16T06:31:55.388Z,70.50
2023-02-16T06:34:57.324Z,70.60
2023-02-16T06:37:59.265Z,70.63
2023-02-16T06:41:01.605Z,70.66
2023-02-16T06:44:09.144Z,70.69
2023-02-16T06:47:11.232Z,70.76
2023-02-16T06:50:13.851Z,70.76
2023-02-16T06:53:15.674Z,70.85
2023-02-16T06:56:17.563Z,70.85
2023-02-16T06:59:19.583Z,70.86
2023-02-16T07:02:21.619Z,70.97
2023-02-16T07:05:24.329Z,71.07
2023-02-16T07:08:27.393Z,71.15
2023-02-16T07:11:29.404Z,71.19
2023-02-16T07:14:31.527Z,71.22
2023-02-16T07:17:33.421Z,71.31
2023-02-16T07:20:35.366Z,71.20
2023-02-16T07:23:37.301Z,71.28
2023-02-16T07:26:39.140Z,71.31
2023-02-16T07:29:41.037Z,71.39
2023-02-16T07:32:43.243Z,71.40
2023-02-16T07:35:44.951Z,71.33
2023-02-16T07:38:46.800Z,71.22
2023-02-16T07:41:48.715Z,71.17
2023-02-16T07:44:52.720Z,71.15
2023-02-16T07:47:54.576Z,71.17
2023-02-16T07:50:56.843Z,71.12
2023-02-16T07:53:59.375Z,71.09
2023-02-16T07:57:01.232Z,71.08
2023-02-16T08:00:03.933Z,71.05
2023-02-16T08:03:13.334Z,70.96
2023-02-16T08:06:16.313Z,70.98
2023-02-16T08:09:18.316Z,70.99
2023-02-16T08:12:21.271Z,70.97
2023-02-16T08:15:23.369Z,70.97
2023-02-16T08:18:25.293Z,70.98
2023-02-16T08:21:31.287Z,71.01
2023-02-16T08:24:34.090Z,71.05
2023-02-16T08:27:36.197Z,71.04
2023-02-16T08:30:38.112Z,71.05
2023-02-16T08:33:40.831Z,71.03
2023-02-16T08:36:45.330Z,71.01
2023-02-16T08:39:48.494Z,71.09
2023-02-16T08:42:50.683Z,71.08
2023-02-16T08:45:52.846Z,71.02
2023-02-16T08:48:59.113Z,71.00
2023-02-16T08:52:01.431Z,70.97
2023-02-16T08:55:04.054Z,70.79
2023-02-16T08:58:06.325Z,70.76
2023-02-16T09:01:08.678Z,70.74
2023-02-16T09:04:11.164Z,70.71
2023-02-16T09:07:13.180Z,70.62
2023-02-16T09:10:15.204Z,70.44
2023-02-16T09:13:17.157Z,70.29
2023-02-16T09:16:21.910Z,70.22
2023-02-16T09:19:24.184Z,70.04
2023-02-16T09:22:27.762Z,69.75
2023-02-16T09:25:29.794Z,69.48
2023-02-16T09:28:32.295Z,69.29
2023-02-16T09:31:36.550Z,69.13
2023-02-16T09:34:38.472Z,68.86
2023-02-16T09:37:40.485Z,68.71
2023-02-16T09:40:44.832Z,68.49
2023-02-16T09:44:28.565Z,68.27
2023-02-16T09:47:41.589Z,68.10
2023-02-16T09:50:55.036Z,67.74
2023-02-16T09:54:10.394Z,67.42
2023-02-16T09:57:15.384Z,67.22
2023-02-16T10:00:32.392Z,67.08
2023-02-16T10:03:54.549Z,66.96
2023-02-16T10:06:59.498Z,66.95
2023-02-16T10:10:04.498Z,67.09
2023-02-16T10:13:16.448Z,66.70
2023-02-16T10:16:27.725Z,66.35
2023-02-16T10:19:40.750Z,66.38
2023-02-16T10:23:00.752Z,66.16
2023-02-16T10:26:32.663Z,65.92
2023-02-16T10:29:35.050Z,65.62
2023-02-16T10:32:44.038Z,65.36
2023-02-16T10:35:56.948Z,65.61
2023-02-16T10:39:28.181Z,65.10
2023-02-16T10:43:22.287Z,64.78
2023-02-16T10:46:30.342Z,64.42
2023-02-16T10:49:35.112Z,64.19
2023-02-16T10:52:41.363Z,63.84
2023-02-16T10:55:43.692Z,63.65
2023-02-16T10:58:46.318Z,63.45
2023-02-16T11:01:50.588Z,63.88
2023-02-16T11:04:55.440Z,64.11
2023-02-16T11:08:02.278Z,63.42
2023-02-16T11:11:09.304Z,62.88
2023-02-16T11:14:29.749Z,62.46
2023-02-16T11:17:46.658Z,62.15
2023-02-16T11:20:54.339Z,61.89
2023-02-16T11:24:01.602Z,61.72
2023-02-16T11:27:19.454Z,61.34
2023-02-16T11:30:35.301Z,61.09
2023-02-16T11:33:38.287Z,60.77
2023-02-16T11:36:45.620Z,60.57
2023-02-16T11:39:54.612Z,59.95
2023-02-16T11:42:59.640Z,59.67
2023-02-16T11:46:07.514Z,59.48
2023-02-16T11:49:33.354Z,59.26
2023-02-16T11:52:35.774Z,59.27
2023-02-16T11:55:44.271Z,58.83
2023-02-16T11:59:13.976Z,58.75
2023-02-16T12:16:23.736Z,57.81
2023-02-16T12:19:43.416Z,57.53
2023-02-16T12:22:54.168Z,57.45
2023-02-16T12:26:03.052Z,57.33
2023-02-16T12:29:30.996Z,57.27
2023-02-16T12:32:44.324Z,57.33
2023-02-16T12:35:52.378Z,57.35
2023-02-16T12:39:05.405Z,57.28
2023-02-16T12:42:45.441Z,57.34
2023-02-16T12:45:49.009Z,57.57
2023-02-16T12:49:00.491Z,57.85
2023-02-16T12:52:21.654Z,57.67
2023-02-16T12:55:32.248Z,57.62
2023-02-16T12:58:44.661Z,57.64
2023-02-16T13:01:47.321Z,57.81
2023-02-16T13:04:49.017Z,58.14
2023-02-16T13:08:03.033Z,58.23
2023-02-16T13:11:11.357Z,58.02
2023-02-16T13:14:19.680Z,57.92
2023-02-16T13:17:32.520Z,57.95
2023-02-16T13:20:37.556Z,57.96
2023-02-16T13:24:23.909Z,58.01
2023-02-16T13:28:00.641Z,58.00
2023-02-16T13:31:34.063Z,58.29
2023-02-16T13:35:03.205Z,58.42
2023-02-16T13:38:32.566Z,58.42
2023-02-16T13:41:54.899Z,58.50
2023-02-16T13:45:00.576Z,58.57
2023-02-16T13:48:14.274Z,58.58
2023-02-16T13:51:24.683Z,58.69
2023-02-16T13:54:43.128Z,58.83
2023-02-16T13:57:50.782Z,58.87
2023-02-16T14:00:54.133Z,59.01
2023-02-16T14:03:56.283Z,59.25
2023-02-16T14:07:06.969Z,59.46
2023-02-16T14:10:13.789Z,59.58
2023-02-16T14:13:16.217Z,59.67
2023-02-16T14:16:18.031Z,59.80
2023-02-16T14:19:25.988Z,59.90
2023-02-16T14:22:37.285Z,60.05
2023-02-16T14:25:39.953Z,60.10
2023-02-16T14:29:11.837Z,60.28
2023-02-16T14:32:30.765Z,60.31
2023-02-16T14:35:38.264Z,60.44
2023-02-16T14:38:40.715Z,60.55
2023-02-16T14:41:42.898Z,60.67
2023-02-16T14:45:09.507Z,60.80
2023-02-16T14:48:22.934Z,60.95
2023-02-16T14:51:43.816Z,61.14
2023-02-16T14:55:23.528Z,61.23
2023-02-16T14:58:29.408Z,61.22
2023-02-16T15:01:42.947Z,61.33
2023-02-16T15:04:45.569Z,61.43
2023-02-16T15:07:51.079Z,61.48
2023-02-16T15:10:57.793Z,61.56
2023-02-16T15:14:10.480Z,61.68
2023-02-16T15:17:29.852Z,61.77
2023-02-16T15:20:37.955Z,61.87
2023-02-16T15:23:48.546Z,61.95
2023-02-16T15:26:56.268Z,62.09
2023-02-16T15:30:06.232Z,62.19
2023-02-16T15:33:29.953Z,62.32
2023-02-16T15:36:37.800Z,62.41
2023-02-16T15:39:51.907Z,62.54
2023-02-16T15:43:39.329Z,62.63
2023-02-16T15:46:43.778Z,62.72
2023-02-16T15:49:46.076Z,62.86
2023-02-16T15:52:48.020Z,62.96
2023-02-16T15:55:50.950Z,63.04
2023-02-16T15:58:53.740Z,63.15
2023-02-16T16:02:33.188Z,63.24
2023-02-16T16:05:36.271Z,63.31
2023-02-16T16:08:38.549Z,63.40
2023-02-16T16:11:40.376Z,63.53
2023-02-16T16:14:53.739Z,63.44
2023-02-16T16:17:59.230Z,63.62
2023-02-16T16:21:02.400Z,63.76
2023-02-16T16:24:11.650Z,63.85
2023-02-16T16:27:14.683Z,63.95
2023-02-16T16:30:20.369Z,64.04
2023-02-16T16:33:22.512Z,64.14
2023-02-16T16:36:33.925Z,64.20
2023-02-16T16:39:39.138Z,64.27
2023-02-16T16:43:02.429Z,64.34
2023-02-16T16:46:25.528Z,64.41
2023-02-16T16:49:28.122Z,64.47
2023-02-16T16:52:48.885Z,64.58
2023-02-16T16:55:51.290Z,64.65
2023-02-16T16:58:56.321Z,64.75
2023-02-16T17:01:58.454Z,64.80
2023-02-16T17:05:00.882Z,64.91
2023-02-16T17:08:03.272Z,64.96
2023-02-16T17:11:06.309Z,65.03
2023-02-16T17:14:14.085Z,64.92
2023-02-16T17:17:16.475Z,65.05
2023-02-16T17:20:18.557Z,65.14
2023-02-16T17:23:22.238Z,65.04
2023-02-16T17:26:24.516Z,65.15
2023-02-16T17:29:26.807Z,65.25
2023-02-16T17:32:28.889Z,65.37
2023-02-16T17:35:31.176Z,65.25
2023-02-16T17:38:33.371Z,65.40
2023-02-16T17:41:35.342Z,65.52
2023-02-16T17:44:37.177Z,65.61
2023-02-16T17:47:39.057Z,65.68
2023-02-16T17:50:41.104Z,65.73
2023-02-16T17:53:43.873Z,65.82
2023-02-16T17:56:46.583Z,65.93
2023-02-16T17:59:48.938Z,65.95
2023-02-16T18:02:50.670Z,66.04
2023-02-16T18:05:53.262Z,65.89
2023-02-16T18:08:55.228Z,65.98
2023-02-16T18:11:57.386Z,66.12
2023-02-16T18:14:59.255Z,66.15
2023-02-16T18:18:01.268Z,66.21
2023-02-16T18:21:03.437Z,66.24
2023-02-16T18:24:05.520Z,66.34
2023-02-16T18:27:07.552Z,66.40
2023-02-16T18:30:12.908Z,66.45
2023-02-16T18:33:15.406Z,66.53
2023-02-16T18:36:17.312Z,66.62
2023-02-16T18:39:19.148Z,66.72
2023-02-16T18:42:21.122Z,66.73
2023-02-16T18:45:23.871Z,66.73
2023-02-16T18:48:25.835Z,66.76
2023-02-16T18:51:31.209Z,66.80
2023-02-16T18:54:33.841Z,66.83
2023-02-16T18:57:35.836Z,66.88
2023-02-16T19:00:37.987Z,66.91
2023-02-16T19:03:40.767Z,66.96
2023-02-16T19:06:43.710Z,66.85
2023-02-16T19:09:46.396Z,66.92
2023-02-16T19:12:49.052Z,66.97
2023-02-16T19:15:51.497Z,66.99
2023-02-16T19:18:54.405Z,67.03
2023-02-16T19:21:56.761Z,67.04
2023-02-16T19:24:59.694Z,67.11
2023-02-16T19:28:02.436Z,67.13
2023-02-16T19:31:14.894Z,67.15
2023-02-16T19:34:17.549Z,67.20
2023-02-16T19:37:24.195Z,67.24
2023-02-16T19:40:26.677Z,67.26
2023-02-16T19:43:29.707Z,67.25
2023-02-16T19:46:34.680Z,67.30
2023-02-16T19:49:37.787Z,67.34
2023-02-16T19:52:41.116Z,67.35
2023-02-16T19:55:45.797Z,67.34
2023-02-16T19:58:49.504Z,67.31
2023-02-16T20:01:52.689Z,67.32
2023-02-16T20:04:55.914Z,67.35
2023-02-16T20:07:58.629Z,67.33
2023-02-16T20:11:04.177Z,67.34
2023-02-16T20:14:07.553Z,67.37
2023-02-16T20:17:10.456Z,67.35
2023-02-16T20:20:13.942Z,67.38
2023-02-16T20:23:16.978Z,67.39
2023-02-16T20:26:24.225Z,67.38
2023-02-16T20:29:27.234Z,67.39
2023-02-16T20:32:30.042Z,67.37
2023-02-16T20:35:35.951Z,67.39
2023-02-16T20:38:38.852Z,67.39
2023-02-16T20:41:41.791Z,67.38
2023-02-16T20:44:44.481Z,67.46
2023-02-16T20:47:46.871Z,67.46
2023-02-16T20:50:57.167Z,67.51
2023-02-16T20:54:01.464Z,67.47
2023-02-16T20:57:05.149Z,67.48
2023-02-16T21:00:13.564Z,67.48
2023-02-16T21:03:15.954Z,67.49
2023-02-16T21:06:18.784Z,67.47
2023-02-16T21:09:20.716Z,67.48
2023-02-16T21:12:22.681Z,67.49
2023-02-16T21:15:24.517Z,67.51
2023-02-16T21:18:26.387Z,67.50
2023-02-16T21:21:28.312Z,67.52
2023-02-16T21:24:30.166Z,67.52
2023-02-16T21:27:31.990Z,67.58
2023-02-16T21:30:33.934Z,67.59
2023-02-16T21:33:36.216Z,67.60
2023-02-16T21:36:38.204Z,67.61
2023-02-16T21:39:58.598Z,67.54
2023-02-16T21:43:00.475Z,67.57
2023-02-16T21:46:02.473Z,67.60
2023-02-16T21:49:06.812Z,67.65
2023-02-16T21:52:08.733Z,67.66
2023-02-16T21:55:30.773Z,67.71
2023-02-16T21:58:33.726Z,67.74
2023-02-16T22:01:39.047Z,67.75
2023-02-16T22:04:42.092Z,67.73
2023-02-16T22:07:43.989Z,67.78
2023-02-16T22:10:45.797Z,67.80
2023-02-16T22:13:53.063Z,67.80
2023-02-16T22:16:55.025Z,67.82
2023-02-16T22:19:56.787Z,67.86
2023-02-16T22:22:58.650Z,67.87
2023-02-16T22:26:01.032Z,67.92
2023-02-16T22:29:04.908Z,67.94
2023-02-16T22:32:06.897Z,67.98
2023-02-16T22:35:08.785Z,68.00
2023-02-16T22:38:10.587Z,68.03
2023-02-16T22:41:12.523Z,68.07
2023-02-16T22:44:15.052Z,68.11
2023-02-16T22:47:17.063Z,68.14
2023-02-16T22:50:18.989Z,68.16
2023-02-16T22:53:20.812Z,68.18
2023-02-16T22:56:22.610Z,68.19
2023-02-16T22:59:24.476Z,68.20
2023-02-16T23:02:26.324Z,68.24
2023-02-16T23:05:29.802Z,68.25
2023-02-16T23:08:31.625Z,68.27
2023-02-16T23:11:35.061Z,68.27
2023-02-16T23:14:37.849Z,68.31
2023-02-16T23:17:39.662Z,68.35
2023-02-16T23:20:41.490Z,68.36
2023-02-16T23:23:44.236Z,68.38
2023-02-16T23:26:46.694Z,68.41
2023-02-16T23:29:48.591Z,68.44
2023-02-16T23:32:50.785Z,68.45
2023-02-16T23:35:53.475Z,68.45
2023-02-16T23:38:59.469Z,68.40
2023-02-16T23:42:01.285Z,68.49
2023-02-16T23:45:03.807Z,68.60
2023-02-16T23:48:05.684Z,68.66
2023-02-16T23:51:07.555Z,68.75
2023-02-16T23:54:10.799Z,68.81
2023-02-16T23:57:12.651Z,68.85
